sensor_id;sensor_type;location;lat;lon;timestamp;P1;durP1;ratioP1;P2;durP2;ratioP2
10244;SDS011;5167;52.164;10.530;2023-09-19T00:01:39;0.50;;;0.50;;
10244;SDS011;5167;52.164;10.530;2023-09-19T00:04:05;1.23;;;0.75;;
10244;SDS011;5167;52.164;10.530;2023-09-19T00:06:37;0.95;;;0.95;;
10244;SDS011;5167;52.164;10.530;2023-09-19T00:09:03;2.20;;;0.80;;
10244;SDS011;5167;52.164;10.530;2023-09-19T00:11:29;1.15;;;0.60;;
10244;SDS011;5167;52.164;10.530;2023-09-19T00:13:55;1.13;;;0.80;;
10244;SDS011;5167;52.164;10.530;2023-09-19T00:16:22;2.15;;;0.68;;
10244;SDS011;5167;52.164;10.530;2023-09-19T00:18:48;2.47;;;0.77;;
10244;SDS011;5167;52.164;10.530;2023-09-19T00:21:14;0.80;;;0.80;;
10244;SDS011;5167;52.164;10.530;2023-09-19T00:23:40;3.25;;;0.98;;
10244;SDS011;5167;52.164;10.530;2023-09-19T00:26:06;4.82;;;0.80;;
10244;SDS011;5167;52.164;10.530;2023-09-19T00:28:31;1.85;;;0.70;;
10244;SDS011;5167;52.164;10.530;2023-09-19T00:30:57;0.80;;;0.77;;
10244;SDS011;5167;52.164;10.530;2023-09-19T00:33:26;1.40;;;0.88;;
10244;SDS011;5167;52.164;10.530;2023-09-19T00:35:52;1.58;;;0.73;;
10244;SDS011;5167;52.164;10.530;2023-09-19T00:38:20;0.73;;;0.60;;
10244;SDS011;5167;52.164;10.530;2023-09-19T00:40:47;0.93;;;0.70;;
10244;SDS011;5167;52.164;10.530;2023-09-19T00:43:16;1.77;;;0.70;;
10244;SDS011;5167;52.164;10.530;2023-09-19T00:45:42;0.82;;;0.80;;
10244;SDS011;5167;52.164;10.530;2023-09-19T00:48:09;1.20;;;1.00;;
10244;SDS011;5167;52.164;10.530;2023-09-19T00:50:35;0.60;;;0.60;;
10244;SDS011;5167;52.164;10.530;2023-09-19T00:53:01;0.88;;;0.63;;
10244;SDS011;5167;52.164;10.530;2023-09-19T00:55:32;1.45;;;0.70;;
10244;SDS011;5167;52.164;10.530;2023-09-19T00:57:59;4.13;;;0.88;;
10244;SDS011;5167;52.164;10.530;2023-09-19T01:00:25;2.80;;;0.90;;
10244;SDS011;5167;52.164;10.530;2023-09-19T01:02:51;2.13;;;0.80;;
10244;SDS011;5167;52.164;10.530;2023-09-19T01:05:17;1.27;;;0.73;;
10244;SDS011;5167;52.164;10.530;2023-09-19T01:07:43;1.30;;;0.73;;
10244;SDS011;5167;52.164;10.530;2023-09-19T01:10:14;0.80;;;0.80;;
10244;SDS011;5167;52.164;10.530;2023-09-19T01:18:20;0.75;;;0.70;;
10244;SDS011;5167;52.164;10.530;2023-09-19T01:24:16;1.42;;;0.50;;
10244;SDS011;5167;52.164;10.530;2023-09-19T01:29:45;2.55;;;1.10;;
10244;SDS011;5167;52.164;10.530;2023-09-19T01:32:19;0.95;;;0.88;;
10244;SDS011;5167;52.164;10.530;2023-09-19T01:37:21;1.75;;;0.70;;
10244;SDS011;5167;52.164;10.530;2023-09-19T01:40:13;0.70;;;0.63;;
10244;SDS011;5167;52.164;10.530;2023-09-19T01:50:45;1.65;;;0.75;;
10244;SDS011;5167;52.164;10.530;2023-09-19T01:53:27;0.82;;;0.82;;
10244;SDS011;5167;52.164;10.530;2023-09-19T01:55:58;2.33;;;0.88;;
10244;SDS011;5167;52.164;10.530;2023-09-19T02:01:15;2.25;;;0.90;;
10244;SDS011;5167;52.164;10.530;2023-09-19T02:03:44;1.05;;;0.90;;
10244;SDS011;5167;52.164;10.530;2023-09-19T02:06:17;1.23;;;0.80;;
10244;SDS011;5167;52.164;10.530;2023-09-19T02:08:43;3.92;;;1.02;;
10244;SDS011;5167;52.164;10.530;2023-09-19T02:11:10;0.75;;;0.70;;
10244;SDS011;5167;52.164;10.530;2023-09-19T02:13:36;1.40;;;1.10;;
10244;SDS011;5167;52.164;10.530;2023-09-19T02:16:02;4.70;;;1.10;;
10244;SDS011;5167;52.164;10.530;2023-09-19T02:18:29;1.02;;;0.93;;
10244;SDS011;5167;52.164;10.530;2023-09-19T02:20:55;0.88;;;0.88;;
10244;SDS011;5167;52.164;10.530;2023-09-19T02:23:22;1.00;;;0.90;;
10244;SDS011;5167;52.164;10.530;2023-09-19T02:25:54;1.05;;;0.80;;
10244;SDS011;5167;52.164;10.530;2023-09-19T02:28:20;1.95;;;0.93;;
10244;SDS011;5167;52.164;10.530;2023-09-19T02:30:47;1.20;;;1.10;;
10244;SDS011;5167;52.164;10.530;2023-09-19T02:33:14;2.15;;;1.10;;
10244;SDS011;5167;52.164;10.530;2023-09-19T02:35:40;1.50;;;1.40;;
10244;SDS011;5167;52.164;10.530;2023-09-19T02:38:05;3.95;;;1.20;;
10244;SDS011;5167;52.164;10.530;2023-09-19T02:40:32;2.22;;;1.00;;
10244;SDS011;5167;52.164;10.530;2023-09-19T02:43:00;2.55;;;1.02;;
10244;SDS011;5167;52.164;10.530;2023-09-19T02:45:27;1.13;;;1.02;;
10244;SDS011;5167;52.164;10.530;2023-09-19T02:47:53;2.45;;;1.30;;
10244;SDS011;5167;52.164;10.530;2023-09-19T02:50:19;2.70;;;1.20;;
10244;SDS011;5167;52.164;10.530;2023-09-19T02:52:45;5.43;;;1.35;;
10244;SDS011;5167;52.164;10.530;2023-09-19T02:55:15;3.60;;;1.50;;
10244;SDS011;5167;52.164;10.530;2023-09-19T02:57:46;3.00;;;1.30;;
10244;SDS011;5167;52.164;10.530;2023-09-19T03:00:13;1.52;;;1.30;;
10244;SDS011;5167;52.164;10.530;2023-09-19T03:02:38;4.85;;;1.38;;
10244;SDS011;5167;52.164;10.530;2023-09-19T03:05:06;3.15;;;1.27;;
10244;SDS011;5167;52.164;10.530;2023-09-19T03:07:32;1.67;;;1.27;;
10244;SDS011;5167;52.164;10.530;2023-09-19T03:09:58;2.15;;;1.23;;
10244;SDS011;5167;52.164;10.530;2023-09-19T03:12:24;1.38;;;1.27;;
10244;SDS011;5167;52.164;10.530;2023-09-19T03:14:50;1.63;;;1.40;;
10244;SDS011;5167;52.164;10.530;2023-09-19T03:17:16;3.38;;;1.85;;
10244;SDS011;5167;52.164;10.530;2023-09-19T03:19:44;3.50;;;1.80;;
10244;SDS011;5167;52.164;10.530;2023-09-19T03:22:10;9.70;;;1.77;;
10244;SDS011;5167;52.164;10.530;2023-09-19T03:24:35;2.17;;;1.60;;
10244;SDS011;5167;52.164;10.530;2023-09-19T03:27:02;2.10;;;1.65;;
10244;SDS011;5167;52.164;10.530;2023-09-19T03:29:28;4.22;;;1.58;;
10244;SDS011;5167;52.164;10.530;2023-09-19T03:31:53;2.88;;;1.55;;
10244;SDS011;5167;52.164;10.530;2023-09-19T03:34:19;2.95;;;1.60;;
10244;SDS011;5167;52.164;10.530;2023-09-19T03:36:45;7.30;;;1.90;;
10244;SDS011;5167;52.164;10.530;2023-09-19T03:39:11;3.78;;;1.60;;
10244;SDS011;5167;52.164;10.530;2023-09-19T03:41:37;6.22;;;1.58;;
10244;SDS011;5167;52.164;10.530;2023-09-19T03:44:03;2.70;;;1.45;;
10244;SDS011;5167;52.164;10.530;2023-09-19T03:46:29;1.95;;;1.55;;
10244;SDS011;5167;52.164;10.530;2023-09-19T03:48:55;2.72;;;1.67;;
10244;SDS011;5167;52.164;10.530;2023-09-19T03:51:20;1.40;;;1.30;;
10244;SDS011;5167;52.164;10.530;2023-09-19T03:53:46;2.00;;;1.58;;
10244;SDS011;5167;52.164;10.530;2023-09-19T03:56:14;3.55;;;2.10;;
10244;SDS011;5167;52.164;10.530;2023-09-19T03:58:39;2.08;;;1.55;;
10244;SDS011;5167;52.164;10.530;2023-09-19T04:01:05;4.30;;;1.60;;
10244;SDS011;5167;52.164;10.530;2023-09-19T04:03:34;4.18;;;1.60;;
10244;SDS011;5167;52.164;10.530;2023-09-19T04:06:00;2.83;;;1.63;;
10244;SDS011;5167;52.164;10.530;2023-09-19T04:08:26;5.00;;;1.60;;
10244;SDS011;5167;52.164;10.530;2023-09-19T04:10:52;4.60;;;1.80;;
10244;SDS011;5167;52.164;10.530;2023-09-19T04:13:18;2.65;;;1.70;;
10244;SDS011;5167;52.164;10.530;2023-09-19T04:15:43;3.63;;;1.83;;
10244;SDS011;5167;52.164;10.530;2023-09-19T04:18:11;2.13;;;1.80;;
10244;SDS011;5167;52.164;10.530;2023-09-19T04:20:37;2.20;;;1.88;;
10244;SDS011;5167;52.164;10.530;2023-09-19T04:23:02;5.53;;;1.83;;
10244;SDS011;5167;52.164;10.530;2023-09-19T04:25:30;2.38;;;1.85;;
10244;SDS011;5167;52.164;10.530;2023-09-19T04:27:55;6.78;;;2.35;;
10244;SDS011;5167;52.164;10.530;2023-09-19T04:30:21;6.00;;;2.25;;
10244;SDS011;5167;52.164;10.530;2023-09-19T04:32:46;2.75;;;1.92;;
10244;SDS011;5167;52.164;10.530;2023-09-19T04:35:15;3.22;;;2.05;;
10244;SDS011;5167;52.164;10.530;2023-09-19T04:37:41;2.30;;;1.70;;
10244;SDS011;5167;52.164;10.530;2023-09-19T04:40:09;2.75;;;1.90;;
10244;SDS011;5167;52.164;10.530;2023-09-19T04:42:42;2.17;;;1.90;;
10244;SDS011;5167;52.164;10.530;2023-09-19T04:45:09;6.22;;;2.10;;
10244;SDS011;5167;52.164;10.530;2023-09-19T04:47:35;5.30;;;2.22;;
10244;SDS011;5167;52.164;10.530;2023-09-19T04:50:05;5.70;;;2.03;;
10244;SDS011;5167;52.164;10.530;2023-09-19T04:52:33;2.60;;;2.17;;
10244;SDS011;5167;52.164;10.530;2023-09-19T04:54:58;3.72;;;2.22;;
10244;SDS011;5167;52.164;10.530;2023-09-19T04:57:23;7.57;;;2.72;;
10244;SDS011;5167;52.164;10.530;2023-09-19T04:59:50;3.13;;;2.40;;
10244;SDS011;5167;52.164;10.530;2023-09-19T05:02:16;2.63;;;2.30;;
10244;SDS011;5167;52.164;10.530;2023-09-19T05:04:41;3.05;;;2.42;;
10244;SDS011;5167;52.164;10.530;2023-09-19T05:07:07;6.85;;;2.80;;
10244;SDS011;5167;52.164;10.530;2023-09-19T05:09:32;2.92;;;2.05;;
10244;SDS011;5167;52.164;10.530;2023-09-19T05:11:59;2.60;;;2.40;;
10244;SDS011;5167;52.164;10.530;2023-09-19T05:14:25;3.50;;;2.33;;
10244;SDS011;5167;52.164;10.530;2023-09-19T05:16:50;4.45;;;2.63;;
10244;SDS011;5167;52.164;10.530;2023-09-19T05:19:16;4.95;;;2.72;;
10244;SDS011;5167;52.164;10.530;2023-09-19T05:21:42;5.18;;;2.67;;
10244;SDS011;5167;52.164;10.530;2023-09-19T05:24:07;5.15;;;2.58;;
10244;SDS011;5167;52.164;10.530;2023-09-19T05:26:33;3.92;;;2.28;;
10244;SDS011;5167;52.164;10.530;2023-09-19T05:28:58;1.95;;;1.85;;
10244;SDS011;5167;52.164;10.530;2023-09-19T05:31:24;2.30;;;2.13;;
10244;SDS011;5167;52.164;10.530;2023-09-19T05:33:50;4.13;;;2.70;;
10244;SDS011;5167;52.164;10.530;2023-09-19T05:36:16;4.95;;;2.30;;
10244;SDS011;5167;52.164;10.530;2023-09-19T05:38:42;7.93;;;2.67;;
10244;SDS011;5167;52.164;10.530;2023-09-19T05:41:09;4.13;;;2.10;;
10244;SDS011;5167;52.164;10.530;2023-09-19T05:43:38;4.00;;;2.80;;
10244;SDS011;5167;52.164;10.530;2023-09-19T05:46:05;6.55;;;2.80;;
10244;SDS011;5167;52.164;10.530;2023-09-19T05:48:33;6.95;;;2.28;;
10244;SDS011;5167;52.164;10.530;2023-09-19T05:50:58;3.15;;;2.35;;
10244;SDS011;5167;52.164;10.530;2023-09-19T05:53:25;5.55;;;2.55;;
10244;SDS011;5167;52.164;10.530;2023-09-19T05:55:51;6.00;;;2.70;;
10244;SDS011;5167;52.164;10.530;2023-09-19T05:58:18;4.85;;;2.90;;
10244;SDS011;5167;52.164;10.530;2023-09-19T06:00:45;6.78;;;2.33;;
10244;SDS011;5167;52.164;10.530;2023-09-19T06:03:12;4.25;;;2.20;;
10244;SDS011;5167;52.164;10.530;2023-09-19T06:05:39;7.68;;;2.45;;
10244;SDS011;5167;52.164;10.530;2023-09-19T06:08:06;5.82;;;2.35;;
10244;SDS011;5167;52.164;10.530;2023-09-19T06:10:33;3.95;;;2.42;;
10244;SDS011;5167;52.164;10.530;2023-09-19T06:12:59;9.68;;;3.55;;
10244;SDS011;5167;52.164;10.530;2023-09-19T06:15:29;6.22;;;2.47;;
10244;SDS011;5167;52.164;10.530;2023-09-19T06:17:57;7.10;;;2.20;;
10244;SDS011;5167;52.164;10.530;2023-09-19T06:20:24;2.90;;;2.47;;
10244;SDS011;5167;52.164;10.530;2023-09-19T06:22:51;3.13;;;2.35;;
10244;SDS011;5167;52.164;10.530;2023-09-19T06:25:17;4.40;;;2.50;;
10244;SDS011;5167;52.164;10.530;2023-09-19T06:27:47;7.07;;;2.30;;
10244;SDS011;5167;52.164;10.530;2023-09-19T06:30:14;5.35;;;2.50;;
10244;SDS011;5167;52.164;10.530;2023-09-19T06:32:40;8.60;;;2.53;;
10244;SDS011;5167;52.164;10.530;2023-09-19T06:35:09;5.05;;;2.58;;
10244;SDS011;5167;52.164;10.530;2023-09-19T06:37:36;4.70;;;2.47;;
10244;SDS011;5167;52.164;10.530;2023-09-19T06:40:05;8.07;;;2.42;;
10244;SDS011;5167;52.164;10.530;2023-09-19T06:42:31;6.15;;;2.47;;
10244;SDS011;5167;52.164;10.530;2023-09-19T06:44:57;5.72;;;2.03;;
10244;SDS011;5167;52.164;10.530;2023-09-19T06:47:23;6.35;;;2.15;;
10244;SDS011;5167;52.164;10.530;2023-09-19T06:49:50;5.65;;;2.00;;
10244;SDS011;5167;52.164;10.530;2023-09-19T06:52:16;3.72;;;2.15;;
10244;SDS011;5167;52.164;10.530;2023-09-19T06:54:44;6.30;;;2.20;;
10244;SDS011;5167;52.164;10.530;2023-09-19T06:57:10;9.38;;;1.75;;
10244;SDS011;5167;52.164;10.530;2023-09-19T06:59:35;4.13;;;1.85;;
10244;SDS011;5167;52.164;10.530;2023-09-19T07:02:02;6.78;;;2.30;;
10244;SDS011;5167;52.164;10.530;2023-09-19T07:04:27;6.88;;;2.22;;
10244;SDS011;5167;52.164;10.530;2023-09-19T07:06:53;5.60;;;2.17;;
10244;SDS011;5167;52.164;10.530;2023-09-19T07:09:19;7.25;;;2.13;;
10244;SDS011;5167;52.164;10.530;2023-09-19T07:11:44;6.50;;;2.00;;
10244;SDS011;5167;52.164;10.530;2023-09-19T07:14:10;6.88;;;1.90;;
10244;SDS011;5167;52.164;10.530;2023-09-19T07:16:37;6.28;;;2.30;;
10244;SDS011;5167;52.164;10.530;2023-09-19T07:19:04;5.18;;;1.60;;
10244;SDS011;5167;52.164;10.530;2023-09-19T07:21:29;7.70;;;1.83;;
10244;SDS011;5167;52.164;10.530;2023-09-19T07:23:55;5.25;;;2.03;;
10244;SDS011;5167;52.164;10.530;2023-09-19T07:26:20;5.72;;;2.13;;
10244;SDS011;5167;52.164;10.530;2023-09-19T07:28:46;6.85;;;2.10;;
10244;SDS011;5167;52.164;10.530;2023-09-19T07:31:11;5.38;;;1.88;;
10244;SDS011;5167;52.164;10.530;2023-09-19T07:33:39;3.97;;;1.65;;
10244;SDS011;5167;52.164;10.530;2023-09-19T07:36:05;4.88;;;1.90;;
10244;SDS011;5167;52.164;10.530;2023-09-19T07:38:31;7.43;;;1.50;;
10244;SDS011;5167;52.164;10.530;2023-09-19T07:41:01;5.18;;;2.05;;
10244;SDS011;5167;52.164;10.530;2023-09-19T07:43:27;4.78;;;1.70;;
10244;SDS011;5167;52.164;10.530;2023-09-19T07:45:53;6.28;;;1.88;;
10244;SDS011;5167;52.164;10.530;2023-09-19T07:48:18;5.50;;;1.67;;
10244;SDS011;5167;52.164;10.530;2023-09-19T07:50:44;12.18;;;2.92;;
10244;SDS011;5167;52.164;10.530;2023-09-19T07:53:09;6.40;;;1.92;;
10244;SDS011;5167;52.164;10.530;2023-09-19T07:55:38;8.70;;;2.35;;
10244;SDS011;5167;52.164;10.530;2023-09-19T07:58:06;9.98;;;1.88;;
10244;SDS011;5167;52.164;10.530;2023-09-19T08:00:32;8.50;;;1.75;;
10244;SDS011;5167;52.164;10.530;2023-09-19T08:02:59;5.72;;;1.75;;
10244;SDS011;5167;52.164;10.530;2023-09-19T08:05:25;10.38;;;1.90;;
10244;SDS011;5167;52.164;10.530;2023-09-19T08:07:51;10.75;;;1.98;;
10244;SDS011;5167;52.164;10.530;2023-09-19T08:10:17;9.50;;;2.28;;
10244;SDS011;5167;52.164;10.530;2023-09-19T08:12:45;5.15;;;1.70;;
10244;SDS011;5167;52.164;10.530;2023-09-19T08:15:11;5.90;;;1.60;;
10244;SDS011;5167;52.164;10.530;2023-09-19T08:17:38;9.63;;;2.53;;
10244;SDS011;5167;52.164;10.530;2023-09-19T08:20:04;10.50;;;1.90;;
10244;SDS011;5167;52.164;10.530;2023-09-19T08:22:30;9.10;;;2.30;;
10244;SDS011;5167;52.164;10.530;2023-09-19T08:24:57;4.82;;;2.47;;
10244;SDS011;5167;52.164;10.530;2023-09-19T08:27:23;7.97;;;2.10;;
10244;SDS011;5167;52.164;10.530;2023-09-19T08:29:51;2.45;;;1.52;;
10244;SDS011;5167;52.164;10.530;2023-09-19T08:32:17;8.80;;;1.70;;
10244;SDS011;5167;52.164;10.530;2023-09-19T08:34:48;9.05;;;1.70;;
10244;SDS011;5167;52.164;10.530;2023-09-19T08:37:14;4.93;;;2.03;;
10244;SDS011;5167;52.164;10.530;2023-09-19T08:39:41;9.35;;;2.17;;
10244;SDS011;5167;52.164;10.530;2023-09-19T08:42:06;6.55;;;1.70;;
10244;SDS011;5167;52.164;10.530;2023-09-19T08:44:35;7.00;;;2.00;;
10244;SDS011;5167;52.164;10.530;2023-09-19T08:47:11;4.45;;;1.92;;
10244;SDS011;5167;52.164;10.530;2023-09-19T08:49:50;7.80;;;1.77;;
10244;SDS011;5167;52.164;10.530;2023-09-19T08:52:42;6.35;;;1.70;;
10244;SDS011;5167;52.164;10.530;2023-09-19T08:55:10;3.08;;;1.10;;
10244;SDS011;5167;52.164;10.530;2023-09-19T08:57:37;10.63;;;2.20;;
10244;SDS011;5167;52.164;10.530;2023-09-19T09:00:06;5.55;;;1.80;;
10244;SDS011;5167;52.164;10.530;2023-09-19T09:02:40;7.20;;;1.52;;
10244;SDS011;5167;52.164;10.530;2023-09-19T09:05:08;6.25;;;1.75;;
10244;SDS011;5167;52.164;10.530;2023-09-19T09:07:35;8.93;;;1.50;;
10244;SDS011;5167;52.164;10.530;2023-09-19T09:10:02;10.00;;;2.05;;
10244;SDS011;5167;52.164;10.530;2023-09-19T09:12:28;9.55;;;1.60;;
10244;SDS011;5167;52.164;10.530;2023-09-19T09:14:55;9.63;;;1.35;;
10244;SDS011;5167;52.164;10.530;2023-09-19T09:17:25;6.18;;;1.98;;
10244;SDS011;5167;52.164;10.530;2023-09-19T09:19:52;5.18;;;1.55;;
10244;SDS011;5167;52.164;10.530;2023-09-19T09:22:18;3.50;;;1.40;;
10244;SDS011;5167;52.164;10.530;2023-09-19T09:24:56;7.05;;;1.50;;
10244;SDS011;5167;52.164;10.530;2023-09-19T09:27:31;7.18;;;2.13;;
10244;SDS011;5167;52.164;10.530;2023-09-19T09:29:59;8.73;;;1.70;;
10244;SDS011;5167;52.164;10.530;2023-09-19T09:32:28;5.88;;;1.50;;
10244;SDS011;5167;52.164;10.530;2023-09-19T09:34:59;10.38;;;1.73;;
10244;SDS011;5167;52.164;10.530;2023-09-19T09:37:25;7.05;;;2.53;;
10244;SDS011;5167;52.164;10.530;2023-09-19T09:39:56;4.60;;;1.90;;
10244;SDS011;5167;52.164;10.530;2023-09-19T09:45:12;5.03;;;1.70;;
10244;SDS011;5167;52.164;10.530;2023-09-19T09:47:41;4.00;;;1.40;;
10244;SDS011;5167;52.164;10.530;2023-09-19T09:50:07;4.78;;;1.40;;
10244;SDS011;5167;52.164;10.530;2023-09-19T09:52:45;5.03;;;1.30;;
10244;SDS011;5167;52.164;10.530;2023-09-19T09:55:12;2.38;;;1.30;;
10244;SDS011;5167;52.164;10.530;2023-09-19T09:57:37;4.50;;;1.40;;
10244;SDS011;5167;52.164;10.530;2023-09-19T10:00:09;6.25;;;1.75;;
10244;SDS011;5167;52.164;10.530;2023-09-19T10:02:38;4.15;;;1.65;;
10244;SDS011;5167;52.164;10.530;2023-09-19T10:05:13;4.07;;;1.45;;
10244;SDS011;5167;52.164;10.530;2023-09-19T10:07:53;6.63;;;1.48;;
10244;SDS011;5167;52.164;10.530;2023-09-19T10:10:32;5.18;;;1.80;;
10244;SDS011;5167;52.164;10.530;2023-09-19T10:13:09;4.65;;;1.73;;
10244;SDS011;5167;52.164;10.530;2023-09-19T10:15:40;3.45;;;1.33;;
10244;SDS011;5167;52.164;10.530;2023-09-19T10:18:14;4.85;;;1.38;;
10244;SDS011;5167;52.164;10.530;2023-09-19T10:20:43;4.05;;;1.08;;
10244;SDS011;5167;52.164;10.530;2023-09-19T10:23:11;5.03;;;1.92;;
10244;SDS011;5167;52.164;10.530;2023-09-19T10:25:38;7.07;;;1.63;;
10244;SDS011;5167;52.164;10.530;2023-09-19T10:28:06;5.95;;;1.58;;
10244;SDS011;5167;52.164;10.530;2023-09-19T10:30:37;2.40;;;1.42;;
10244;SDS011;5167;52.164;10.530;2023-09-19T10:33:09;7.68;;;1.80;;
10244;SDS011;5167;52.164;10.530;2023-09-19T10:35:40;3.72;;;1.33;;
10244;SDS011;5167;52.164;10.530;2023-09-19T10:38:10;6.13;;;1.80;;
10244;SDS011;5167;52.164;10.530;2023-09-19T10:40:38;5.90;;;2.95;;
10244;SDS011;5167;52.164;10.530;2023-09-19T10:43:11;3.90;;;1.60;;
10244;SDS011;5167;52.164;10.530;2023-09-19T10:45:42;4.85;;;1.80;;
10244;SDS011;5167;52.164;10.530;2023-09-19T10:48:10;2.97;;;1.77;;
10244;SDS011;5167;52.164;10.530;2023-09-19T10:50:41;6.97;;;1.80;;
10244;SDS011;5167;52.164;10.530;2023-09-19T10:53:29;5.38;;;1.83;;
10244;SDS011;5167;52.164;10.530;2023-09-19T10:56:07;4.45;;;1.70;;
10244;SDS011;5167;52.164;10.530;2023-09-19T10:58:42;6.72;;;2.17;;
10244;SDS011;5167;52.164;10.530;2023-09-19T11:01:09;7.13;;;2.00;;
10244;SDS011;5167;52.164;10.530;2023-09-19T11:03:43;7.75;;;1.92;;
10244;SDS011;5167;52.164;10.530;2023-09-19T11:06:13;4.97;;;1.85;;
10244;SDS011;5167;52.164;10.530;2023-09-19T11:30:37;5.35;;;2.17;;
10244;SDS011;5167;52.164;10.530;2023-09-19T11:39:00;4.38;;;1.50;;
10244;SDS011;5167;52.164;10.530;2023-09-19T11:41:36;2.35;;;1.30;;
10244;SDS011;5167;52.164;10.530;2023-09-19T11:46:32;5.57;;;1.73;;
10244;SDS011;5167;52.164;10.530;2023-09-19T11:49:08;8.52;;;1.80;;
10244;SDS011;5167;52.164;10.530;2023-09-19T11:51:42;10.88;;;2.45;;
10244;SDS011;5167;52.164;10.530;2023-09-19T11:54:12;4.00;;;1.65;;
10244;SDS011;5167;52.164;10.530;2023-09-19T11:56:48;6.22;;;1.80;;
10244;SDS011;5167;52.164;10.530;2023-09-19T11:59:21;5.72;;;2.33;;
10244;SDS011;5167;52.164;10.530;2023-09-19T12:01:55;5.45;;;2.03;;
10244;SDS011;5167;52.164;10.530;2023-09-19T12:09:44;5.10;;;1.27;;
10244;SDS011;5167;52.164;10.530;2023-09-19T12:12:19;4.68;;;1.70;;
10244;SDS011;5167;52.164;10.530;2023-09-19T12:14:50;4.35;;;1.63;;
10244;SDS011;5167;52.164;10.530;2023-09-19T12:17:16;5.15;;;1.90;;
10244;SDS011;5167;52.164;10.530;2023-09-19T12:19:52;6.05;;;2.40;;
10244;SDS011;5167;52.164;10.530;2023-09-19T12:22:18;5.97;;;1.83;;
10244;SDS011;5167;52.164;10.530;2023-09-19T12:24:45;5.85;;;1.67;;
10244;SDS011;5167;52.164;10.530;2023-09-19T12:27:11;5.35;;;1.90;;
10244;SDS011;5167;52.164;10.530;2023-09-19T12:29:56;8.75;;;1.98;;
10244;SDS011;5167;52.164;10.530;2023-09-19T12:32:34;5.93;;;1.77;;
10244;SDS011;5167;52.164;10.530;2023-09-19T12:35:00;7.70;;;2.50;;
10244;SDS011;5167;52.164;10.530;2023-09-19T12:37:32;7.30;;;2.10;;
10244;SDS011;5167;52.164;10.530;2023-09-19T12:40:05;6.15;;;1.75;;
10244;SDS011;5167;52.164;10.530;2023-09-19T12:42:43;3.47;;;1.73;;
10244;SDS011;5167;52.164;10.530;2023-09-19T12:45:10;7.95;;;2.03;;
10244;SDS011;5167;52.164;10.530;2023-09-19T12:47:38;3.35;;;1.80;;
10244;SDS011;5167;52.164;10.530;2023-09-19T12:55:29;3.42;;;1.92;;
10244;SDS011;5167;52.164;10.530;2023-09-19T13:00:40;4.72;;;1.80;;
10244;SDS011;5167;52.164;10.530;2023-09-19T13:05:47;8.55;;;2.00;;
10244;SDS011;5167;52.164;10.530;2023-09-19T13:08:20;3.92;;;1.65;;
10244;SDS011;5167;52.164;10.530;2023-09-19T13:13:40;5.75;;;1.98;;
10244;SDS011;5167;52.164;10.530;2023-09-19T13:16:19;6.57;;;2.50;;
10244;SDS011;5167;52.164;10.530;2023-09-19T13:21:26;6.80;;;2.53;;
10244;SDS011;5167;52.164;10.530;2023-09-19T13:24:24;6.50;;;1.90;;
10244;SDS011;5167;52.164;10.530;2023-09-19T13:26:52;5.10;;;1.90;;
10244;SDS011;5167;52.164;10.530;2023-09-19T13:29:18;10.88;;;2.22;;
10244;SDS011;5167;52.164;10.530;2023-09-19T13:31:50;4.32;;;1.85;;
10244;SDS011;5167;52.164;10.530;2023-09-19T13:34:18;4.32;;;1.75;;
10244;SDS011;5167;52.164;10.530;2023-09-19T13:36:44;6.75;;;2.15;;
10244;SDS011;5167;52.164;10.530;2023-09-19T13:39:12;4.38;;;1.88;;
10244;SDS011;5167;52.164;10.530;2023-09-19T13:41:38;8.25;;;2.42;;
10244;SDS011;5167;52.164;10.530;2023-09-19T13:44:04;7.47;;;1.90;;
10244;SDS011;5167;52.164;10.530;2023-09-19T13:46:30;8.98;;;2.30;;
10244;SDS011;5167;52.164;10.530;2023-09-19T13:48:58;5.00;;;1.92;;
10244;SDS011;5167;52.164;10.530;2023-09-19T13:51:25;8.80;;;2.20;;
10244;SDS011;5167;52.164;10.530;2023-09-19T13:53:51;4.05;;;1.65;;
10244;SDS011;5167;52.164;10.530;2023-09-19T13:56:16;6.50;;;2.00;;
10244;SDS011;5167;52.164;10.530;2023-09-19T13:58:42;3.17;;;1.90;;
10244;SDS011;5167;52.164;10.530;2023-09-19T14:01:08;6.22;;;1.92;;
10244;SDS011;5167;52.164;10.530;2023-09-19T14:03:41;5.78;;;1.77;;
10244;SDS011;5167;52.164;10.530;2023-09-19T14:06:11;9.82;;;1.90;;
10244;SDS011;5167;52.164;10.530;2023-09-19T14:08:37;7.50;;;2.53;;
10244;SDS011;5167;52.164;10.530;2023-09-19T14:11:06;10.43;;;2.20;;
10244;SDS011;5167;52.164;10.530;2023-09-19T14:13:32;5.03;;;2.03;;
10244;SDS011;5167;52.164;10.530;2023-09-19T14:16:02;5.20;;;1.67;;
10244;SDS011;5167;52.164;10.530;2023-09-19T14:18:31;3.72;;;1.70;;
10244;SDS011;5167;52.164;10.530;2023-09-19T14:20:57;6.57;;;2.15;;
10244;SDS011;5167;52.164;10.530;2023-09-19T14:23:23;3.83;;;2.30;;
10244;SDS011;5167;52.164;10.530;2023-09-19T14:25:50;4.43;;;2.15;;
10244;SDS011;5167;52.164;10.530;2023-09-19T14:28:16;2.47;;;1.63;;
10244;SDS011;5167;52.164;10.530;2023-09-19T14:30:42;3.97;;;1.42;;
10244;SDS011;5167;52.164;10.530;2023-09-19T14:33:07;5.05;;;2.10;;
10244;SDS011;5167;52.164;10.530;2023-09-19T14:35:33;4.82;;;1.90;;
10244;SDS011;5167;52.164;10.530;2023-09-19T14:38:02;5.00;;;1.80;;
10244;SDS011;5167;52.164;10.530;2023-09-19T14:40:27;3.60;;;1.80;;
10244;SDS011;5167;52.164;10.530;2023-09-19T14:42:53;7.97;;;2.08;;
10244;SDS011;5167;52.164;10.530;2023-09-19T14:45:18;5.80;;;1.92;;
10244;SDS011;5167;52.164;10.530;2023-09-19T14:47:45;3.30;;;1.92;;
10244;SDS011;5167;52.164;10.530;2023-09-19T14:50:12;8.55;;;1.98;;
10244;SDS011;5167;52.164;10.530;2023-09-19T14:52:38;6.50;;;2.03;;
10244;SDS011;5167;52.164;10.530;2023-09-19T14:55:05;4.20;;;2.10;;
10244;SDS011;5167;52.164;10.530;2023-09-19T14:57:31;3.80;;;1.52;;
10244;SDS011;5167;52.164;10.530;2023-09-19T14:59:57;4.55;;;1.83;;
10244;SDS011;5167;52.164;10.530;2023-09-19T15:02:23;6.00;;;1.75;;
10244;SDS011;5167;52.164;10.530;2023-09-19T15:04:49;4.55;;;2.05;;
10244;SDS011;5167;52.164;10.530;2023-09-19T15:07:15;5.55;;;1.55;;
10244;SDS011;5167;52.164;10.530;2023-09-19T15:09:42;6.97;;;1.70;;
10244;SDS011;5167;52.164;10.530;2023-09-19T15:12:08;4.78;;;1.85;;
10244;SDS011;5167;52.164;10.530;2023-09-19T15:14:35;4.57;;;1.60;;
10244;SDS011;5167;52.164;10.530;2023-09-19T15:17:00;5.55;;;1.55;;
10244;SDS011;5167;52.164;10.530;2023-09-19T15:19:29;5.50;;;1.58;;
10244;SDS011;5167;52.164;10.530;2023-09-19T15:21:55;8.07;;;1.88;;
10244;SDS011;5167;52.164;10.530;2023-09-19T15:24:22;8.48;;;2.28;;
10244;SDS011;5167;52.164;10.530;2023-09-19T15:26:48;6.20;;;1.70;;
10244;SDS011;5167;52.164;10.530;2023-09-19T15:29:15;3.75;;;1.75;;
10244;SDS011;5167;52.164;10.530;2023-09-19T15:31:41;3.42;;;1.60;;
10244;SDS011;5167;52.164;10.530;2023-09-19T15:34:06;4.38;;;1.30;;
10244;SDS011;5167;52.164;10.530;2023-09-19T15:36:32;5.43;;;1.70;;
10244;SDS011;5167;52.164;10.530;2023-09-19T15:39:05;9.18;;;1.55;;
10244;SDS011;5167;52.164;10.530;2023-09-19T15:41:40;5.68;;;1.60;;
10244;SDS011;5167;52.164;10.530;2023-09-19T15:44:17;2.00;;;1.20;;
10244;SDS011;5167;52.164;10.530;2023-09-19T15:46:47;5.45;;;1.50;;
10244;SDS011;5167;52.164;10.530;2023-09-19T15:49:13;5.63;;;1.75;;
10244;SDS011;5167;52.164;10.530;2023-09-19T15:51:39;6.18;;;1.83;;
10244;SDS011;5167;52.164;10.530;2023-09-19T15:54:09;3.35;;;1.55;;
10244;SDS011;5167;52.164;10.530;2023-09-19T15:56:46;3.75;;;1.80;;
10244;SDS011;5167;52.164;10.530;2023-09-19T15:59:13;5.82;;;1.30;;
10244;SDS011;5167;52.164;10.530;2023-09-19T16:01:40;7.00;;;1.50;;
10244;SDS011;5167;52.164;10.530;2023-09-19T16:04:07;1.70;;;1.20;;
10244;SDS011;5167;52.164;10.530;2023-09-19T16:06:34;5.75;;;1.58;;
10244;SDS011;5167;52.164;10.530;2023-09-19T16:09:00;4.80;;;1.38;;
10244;SDS011;5167;52.164;10.530;2023-09-19T16:11:29;2.95;;;1.30;;
10244;SDS011;5167;52.164;10.530;2023-09-19T16:13:56;7.68;;;1.40;;